createdAt,value
2023-03-28T00:02:01.874Z,70.96
2023-03-28T00:07:05.716Z,71.57
2023-03-28T00:12:09.390Z,70.87
2023-03-28T00:17:14.249Z,70.80
2023-03-28T00:22:17.610Z,71.62
2023-03-28T00:27:21.049Z,71.55
2023-03-28T00:32:26.115Z,70.52
2023-03-28T00:37:30.124Z,70.88
2023-03-28T00:42:43.488Z,71.23
2023-03-28T00:47:52.862Z,71.28
2023-03-28T00:53:02.361Z,71.29
2023-03-28T00:58:09.441Z,71.17
2023-03-28T01:03:16.268Z,70.98
2023-03-28T01:08:23.111Z,70.87
2023-03-28T01:13:28.253Z,71.05
2023-03-28T01:18:35.130Z,70.74
2023-03-28T01:24:19.856Z,70.50
2023-03-28T01:30:01.786Z,70.39
2023-03-28T01:35:27.650Z,71.30
2023-03-28T01:40:42.398Z,70.43
2023-03-28T01:45:56.958Z,69.80
2023-03-28T01:51:10.620Z,70.12
2023-03-28T01:56:23.242Z,70.54
2023-03-28T02:01:36.856Z,70.40
2023-03-28T02:06:47.073Z,70.15
2023-03-28T02:11:56.570Z,69.78
2023-03-28T02:17:06.505Z,69.73
2023-03-28T02:22:16.068Z,69.94
2023-03-28T02:27:22.848Z,70.17
2023-03-28T02:32:26.452Z,69.70
2023-03-28T02:37:44.089Z,69.95
2023-03-28T02:43:04.952Z,69.61
2023-03-28T02:48:18.375Z,69.96
2023-03-28T02:53:33.130Z,69.90
2023-03-28T02:58:42.706Z,69.75
2023-03-28T03:03:48.516Z,70.39
2023-03-28T03:08:52.014Z,70.14
2023-03-28T03:13:57.572Z,70.16
2023-03-28T03:19:01.152Z,70.17
2023-03-28T03:24:05.069Z,70.03
2023-03-28T03:29:10.035Z,69.88
2023-03-28T03:34:13.211Z,69.46
2023-03-28T03:39:16.594Z,69.88
2023-03-28T03:44:21.500Z,70.30
2023-03-28T03:49:25.068Z,69.92
2023-03-28T03:54:28.509Z,69.91
2023-03-28T03:59:33.425Z,69.97
2023-03-28T04:04:37.131Z,68.56
2023-03-28T04:09:40.771Z,67.53
2023-03-28T04:14:45.988Z,66.86
2023-03-28T04:19:49.873Z,65.94
2023-03-28T04:24:53.555Z,66.07
2023-03-28T04:30:00.683Z,64.81
2023-03-28T04:35:04.556Z,64.11
2023-03-28T04:40:11.573Z,63.12
2023-03-28T04:45:18.056Z,62.79
2023-03-28T04:50:21.902Z,62.64
2023-03-28T04:55:25.767Z,62.39
2023-03-28T05:00:30.740Z,61.95
2023-03-28T05:05:34.531Z,59.00
2023-03-28T05:10:38.061Z,50.54
2023-03-28T05:15:43.420Z,39.95
2023-03-28T05:20:46.980Z,32.82
2023-03-28T05:25:52.602Z,30.13
2023-03-28T05:30:57.497Z,29.29
2023-03-28T05:36:02.103Z,28.98
2023-03-28T05:41:05.373Z,32.17
2023-03-28T05:46:10.314Z,29.18
2023-03-28T05:51:13.989Z,27.53
2023-03-28T05:56:17.602Z,26.60
2023-03-28T06:01:23.534Z,26.12
2023-03-28T06:06:27.690Z,29.48
2023-03-28T06:11:31.331Z,30.68
2023-03-28T06:16:36.683Z,30.81
2023-03-28T06:21:40.152Z,31.01
2023-03-28T06:26:43.906Z,30.30
2023-03-28T06:31:48.758Z,32.04
2023-03-28T06:36:52.307Z,33.33
2023-03-28T06:41:55.714Z,34.61
2023-03-28T06:47:00.829Z,34.73
2023-03-28T06:52:04.348Z,32.50
2023-03-28T06:57:07.791Z,29.58
2023-03-28T07:02:13.565Z,29.97
2023-03-28T07:07:17.229Z,30.26
2023-03-28T07:12:20.769Z,28.52
2023-03-28T07:17:25.766Z,28.26
2023-03-28T07:22:29.712Z,27.46
2023-03-28T07:27:33.164Z,28.97
2023-03-28T07:32:49.697Z,28.41
2023-03-28T07:37:58.152Z,27.71
2023-03-28T07:43:02.366Z,25.85
2023-03-28T07:48:08.019Z,25.57
2023-03-28T07:53:11.729Z,26.18
2023-03-28T07:58:15.723Z,27.71
2023-03-28T08:03:20.485Z,30.64
2023-03-28T08:08:24.086Z,32.76
2023-03-28T08:13:27.843Z,33.81
2023-03-28T08:18:32.712Z,35.35
2023-03-28T08:23:36.861Z,33.74
2023-03-28T08:28:41.395Z,31.79
2023-03-28T08:33:47.340Z,34.27
2023-03-28T08:38:51.781Z,34.01
2023-03-28T08:44:02.439Z,32.06
2023-03-28T08:49:13.042Z,30.79
2023-03-28T08:54:22.286Z,33.51
2023-03-28T08:59:31.143Z,34.71
2023-03-28T09:04:37.499Z,35.80
2023-03-28T09:09:49.214Z,36.49
2023-03-28T09:15:29.218Z,37.97
2023-03-28T09:20:43.097Z,38.11
2023-03-28T09:25:52.542Z,38.32
2023-03-28T09:31:00.183Z,39.49
2023-03-28T09:36:12.903Z,40.52
2023-03-28T09:41:21.406Z,40.43
2023-03-28T09:46:31.964Z,40.48
2023-03-28T09:51:38.673Z,39.89
2023-03-28T09:56:45.667Z,39.72
2023-03-28T10:01:52.368Z,39.60
2023-03-28T10:07:17.451Z,40.11
2023-03-28T10:12:22.402Z,39.72
2023-03-28T10:17:31.379Z,40.52
2023-03-28T10:22:39.405Z,41.10
2023-03-28T10:27:43.210Z,41.74
2023-03-28T10:32:46.844Z,41.04
2023-03-28T10:37:56.316Z,40.66
2023-03-28T10:43:01.103Z,40.34
2023-03-28T10:48:09.375Z,40.19
2023-03-28T10:53:33.406Z,37.67
2023-03-28T10:58:40.074Z,37.75
2023-03-28T11:03:59.895Z,37.00
2023-03-28T11:09:12.400Z,37.92
2023-03-28T11:14:34.586Z,38.81
2023-03-28T11:19:58.155Z,38.50
2023-03-28T11:25:22.009Z,38.35
2023-03-28T11:30:33.630Z,38.31
2023-03-28T11:35:42.249Z,38.43
2023-03-28T11:40:55.243Z,38.22
2023-03-28T11:46:04.946Z,38.37
2023-03-28T11:51:13.545Z,37.80
2023-03-28T11:56:29.889Z,38.01
2023-03-28T12:01:38.602Z,38.75
2023-03-28T12:06:59.560Z,40.22
2023-03-28T12:12:14.098Z,41.25
2023-03-28T12:17:22.330Z,40.99
2023-03-28T12:22:30.555Z,41.26
2023-03-28T12:27:45.281Z,41.25
2023-03-28T12:32:58.450Z,41.20
2023-03-28T12:38:19.799Z,41.25
2023-03-28T12:43:30.752Z,42.09
2023-03-28T12:48:39.084Z,41.72
2023-03-28T12:53:47.561Z,41.87
2023-03-28T12:58:54.519Z,41.47
2023-03-28T13:04:07.769Z,41.69
2023-03-28T13:09:40.449Z,41.72
2023-03-28T13:14:59.650Z,41.42
2023-03-28T13:20:27.688Z,40.81
2023-03-28T13:25:33.536Z,41.03
2023-03-28T13:30:44.000Z,41.01
2023-03-28T13:35:49.991Z,41.47
2023-03-28T13:40:59.845Z,41.99
2023-03-28T13:46:09.967Z,42.11
2023-03-28T13:51:18.400Z,42.46
2023-03-28T13:56:25.491Z,42.80
2023-03-28T14:01:37.398Z,42.91
2023-03-28T14:06:43.024Z,43.39
2023-03-28T14:11:47.102Z,43.59
2023-03-28T14:16:53.260Z,43.82
2023-03-28T14:21:56.968Z,44.21
2023-03-28T14:27:14.235Z,44.31
2023-03-28T14:32:26.935Z,45.24
2023-03-28T14:37:30.488Z,44.78
2023-03-28T14:42:34.227Z,45.63
2023-03-28T14:47:41.754Z,46.12
2023-03-28T14:52:45.258Z,46.25
2023-03-28T14:57:52.227Z,47.06
2023-03-28T15:02:57.700Z,47.21
2023-03-28T15:08:03.142Z,47.98
2023-03-28T15:13:10.630Z,48.64
2023-03-28T15:18:17.825Z,49.24
2023-03-28T15:23:27.616Z,50.20
2023-03-28T15:28:32.564Z,50.64
2023-03-28T15:33:37.485Z,50.66
2023-03-28T15:38:41.686Z,50.51
2023-03-28T15:43:59.715Z,51.40
2023-03-28T15:49:06.894Z,51.81
2023-03-28T15:54:23.872Z,51.84
2023-03-28T15:59:35.738Z,52.27
2023-03-28T16:04:40.738Z,52.74
2023-03-28T16:09:44.278Z,52.15
2023-03-28T16:14:50.137Z,52.77
2023-03-28T16:19:55.030Z,53.03
2023-03-28T16:24:58.292Z,52.09
2023-03-28T16:30:01.815Z,53.28
2023-03-28T16:35:08.605Z,52.99
2023-03-28T16:40:13.084Z,53.59
2023-03-28T16:45:16.754Z,54.40
2023-03-28T16:50:21.628Z,53.45
2023-03-28T16:55:25.183Z,54.16
2023-03-28T17:00:28.834Z,54.47
2023-03-28T17:05:33.827Z,54.80
2023-03-28T17:10:40.338Z,55.64
2023-03-28T17:15:44.624Z,56.33
2023-03-28T17:20:59.677Z,57.84
2023-03-28T17:26:03.240Z,57.71
2023-03-28T17:31:08.072Z,56.62
2023-03-28T17:36:21.753Z,56.85
2023-03-28T17:41:27.856Z,55.47
2023-03-28T17:46:31.910Z,56.50
2023-03-28T17:51:36.912Z,55.33
2023-03-28T17:56:40.987Z,56.37
2023-03-28T18:01:44.814Z,56.17
2023-03-28T18:06:49.964Z,56.07
2023-03-28T18:11:53.489Z,55.81
2023-03-28T18:16:58.447Z,56.05
2023-03-28T18:22:03.375Z,56.88
2023-03-28T18:27:06.960Z,56.80
2023-03-28T18:32:10.442Z,57.14
2023-03-28T18:37:15.426Z,57.46
2023-03-28T18:42:18.689Z,56.59
2023-03-28T18:47:22.074Z,56.24
2023-03-28T18:52:29.722Z,57.52
2023-03-28T18:57:33.682Z,57.60
2023-03-28T19:02:37.678Z,57.34
2023-03-28T19:07:43.220Z,57.35
2023-03-28T19:12:47.218Z,57.34
2023-03-28T19:17:51.138Z,58.27
2023-03-28T19:22:56.005Z,58.44
2023-03-28T19:27:59.457Z,58.25
2023-03-28T19:33:05.611Z,58.54
2023-03-28T19:38:11.698Z,58.55
2023-03-28T19:43:15.547Z,59.07
2023-03-28T19:48:19.077Z,58.72
2023-03-28T19:53:23.923Z,59.23
2023-03-28T19:58:28.349Z,60.88
2023-03-28T20:03:31.833Z,59.66
2023-03-28T20:08:36.816Z,59.58
2023-03-28T20:13:40.828Z,59.90
2023-03-28T20:18:44.651Z,60.24
2023-03-28T20:23:49.540Z,60.14
2023-03-28T20:28:56.976Z,61.11
2023-03-28T20:34:00.662Z,60.22
2023-03-28T20:39:07.069Z,60.01
2023-03-28T20:44:10.616Z,59.84
2023-03-28T20:49:14.091Z,60.30
2023-03-28T20:54:21.915Z,60.10
2023-03-28T20:59:27.363Z,60.01
2023-03-28T21:04:30.754Z,61.04
2023-03-28T21:09:35.622Z,60.30
2023-03-28T21:14:38.727Z,60.70
2023-03-28T21:19:42.487Z,60.56
2023-03-28T21:24:47.569Z,59.85
2023-03-28T21:29:51.017Z,60.19
2023-03-28T21:34:57.561Z,60.47
2023-03-28T21:40:02.407Z,60.40
2023-03-28T21:45:07.846Z,59.83
2023-03-28T21:50:14.821Z,60.05
2023-03-28T21:55:19.884Z,59.93
2023-03-28T22:00:23.094Z,60.68
2023-03-28T22:05:29.619Z,60.47
2023-03-28T22:10:35.636Z,61.26
2023-03-28T22:15:39.503Z,61.13
2023-03-28T22:20:44.014Z,60.92
2023-03-28T22:25:49.628Z,61.92
2023-03-28T22:30:55.681Z,61.43
2023-03-28T22:35:59.228Z,61.17
2023-03-28T22:41:04.354Z,61.45
2023-03-28T22:46:08.278Z,61.53
2023-03-28T22:51:14.105Z,62.63
2023-03-28T22:56:19.418Z,62.65
2023-03-28T23:01:26.226Z,63.12
2023-03-28T23:06:29.751Z,63.44
2023-03-28T23:11:34.701Z,63.01
2023-03-28T23:16:38.636Z,63.29
2023-03-28T23:21:43.063Z,64.12
2023-03-28T23:26:48.007Z,63.78
2023-03-28T23:31:51.167Z,63.23
2023-03-28T23:36:58.172Z,63.28
2023-03-28T23:42:03.068Z,63.78
2023-03-28T23:47:06.353Z,63.92
2023-03-28T23:52:10.140Z,63.52
2023-03-28T23:57:15.106Z,63.49
